SKL3 NZWF-NZPP
Flight info
| Callsign | SKL3 |
|---|---|
| Flight time | 1h 4m |
| Altitude | 41000 |
| Route | TIMJO Y153 DOPKI Y109 ODOWD Y819 AGSOP |
| Aircraft | C25C/M-SDE2E3FGHRWXY/LB1 |
Departure
| Time | 2026-04-22 03:37 |
|---|---|
| Airport | Wanaka Airport (NZWF) |
Arrival
| Time | 2026-04-22 04:41 |
|---|---|
| Airport | Paraparaumu Airport (NZPP) |
| Time | Latitude | Longitude | Altitude | Speed | Heading |
|---|---|---|---|---|---|
| 2026-04-22 03:30 | -44.72318 | 169.24511 | 1183 ft | 0 kts | 49° |
| 2026-04-22 03:34 | -44.72316 | 169.24512 | 1184 ft | 3 kts | 32° |
| 2026-04-22 03:34 | -44.72261 | 169.24508 | 1186 ft | 12 kts | 25° |
| 2026-04-22 03:35 | -44.72160 | 169.24571 | 1184 ft | 22 kts | 325° |
| 2026-04-22 03:35 | -44.72015 | 169.24392 | 1185 ft | 32 kts | 316° |
| 2026-04-22 03:35 | -44.71869 | 169.24207 | 1198 ft | 19 kts | 316° |
| 2026-04-22 03:35 | -44.71813 | 169.24129 | 1199 ft | 2 kts | 65° |
| 2026-04-22 03:36 | -44.71831 | 169.24162 | 1200 ft | 1 kts | 138° |
| 2026-04-22 03:36 | -44.71834 | 169.24164 | 1200 ft | 0 kts | 136° |
| 2026-04-22 03:36 | -44.71858 | 169.24194 | 1199 ft | 33 kts | 141° |
| 2026-04-22 03:36 | -44.72334 | 169.24758 | 1210 ft | 138 kts | 141° |
| 2026-04-22 03:37 | -44.73187 | 169.25902 | 1600 ft | 193 kts | 135° |
| 2026-04-22 03:37 | -44.74216 | 169.27283 | 2264 ft | 222 kts | 138° |
| 2026-04-22 03:37 | -44.75417 | 169.28733 | 3850 ft | 251 kts | 140° |
| 2026-04-22 03:37 | -44.76908 | 169.30394 | 5074 ft | 286 kts | 143° |
| 2026-04-22 03:38 | -44.78363 | 169.32070 | 7626 ft | 257 kts | 138° |
| 2026-04-22 03:38 | -44.79788 | 169.33997 | 8341 ft | 317 kts | 136° |
| 2026-04-22 03:38 | -44.81468 | 169.36396 | 8238 ft | 351 kts | 133° |
| 2026-04-22 03:38 | -44.82655 | 169.39259 | 8106 ft | 336 kts | 111° |
| 2026-04-22 03:39 | -44.83044 | 169.42723 | 7977 ft | 387 kts | 90° |
| 2026-04-22 03:39 | -44.82236 | 169.46463 | 8737 ft | 409 kts | 65° |
| 2026-04-22 03:39 | -44.80465 | 169.49697 | 9575 ft | 423 kts | 41° |
| 2026-04-22 03:39 | -44.77920 | 169.51414 | 11631 ft | 404 kts | 16° |
| 2026-04-22 03:40 | -44.75200 | 169.51529 | 13972 ft | 382 kts | 353° |
| 2026-04-22 03:40 | -44.72707 | 169.50667 | 16280 ft | 355 kts | 343° |
| 2026-04-22 03:40 | -44.70437 | 169.49634 | 18521 ft | 337 kts | 342° |
| 2026-04-22 03:40 | -44.68138 | 169.48773 | 19684 ft | 345 kts | 350° |
| 2026-04-22 03:41 | -44.65771 | 169.48278 | 20898 ft | 346 kts | 354° |
| 2026-04-22 03:41 | -44.63354 | 169.47771 | 21747 ft | 354 kts | 352° |
| 2026-04-22 03:41 | -44.60912 | 169.47120 | 22672 ft | 360 kts | 351° |
| 2026-04-22 03:41 | -44.58414 | 169.46637 | 23543 ft | 362 kts | 6° |
| 2026-04-22 03:42 | -44.56014 | 169.47371 | 24380 ft | 354 kts | 28° |
| 2026-04-22 03:42 | -44.53974 | 169.49149 | 25113 ft | 340 kts | 50° |
| 2026-04-22 03:42 | -44.52521 | 169.51667 | 25733 ft | 332 kts | 69° |
| 2026-04-22 03:42 | -44.51530 | 169.54627 | 26371 ft | 337 kts | 75° |
| 2026-04-22 03:43 | -44.50573 | 169.57631 | 27311 ft | 339 kts | 75° |
| 2026-04-22 03:43 | -44.49605 | 169.60670 | 28172 ft | 343 kts | 75° |
| 2026-04-22 03:43 | -44.48616 | 169.63709 | 29234 ft | 337 kts | 75° |
| 2026-04-22 03:43 | -44.47644 | 169.66679 | 30066 ft | 338 kts | 75° |
| 2026-04-22 03:44 | -44.46698 | 169.69586 | 31337 ft | 314 kts | 76° |
| 2026-04-22 03:44 | -44.45796 | 169.72233 | 32855 ft | 290 kts | 74° |
| 2026-04-22 03:44 | -44.44864 | 169.74588 | 34329 ft | 263 kts | 76° |
| 2026-04-22 03:44 | -44.44041 | 169.76730 | 35435 ft | 236 kts | 77° |
| 2026-04-22 03:45 | -44.43302 | 169.78673 | 36121 ft | 222 kts | 77° |
| 2026-04-22 03:45 | -44.42580 | 169.80608 | 36338 ft | 230 kts | 76° |
| 2026-04-22 03:45 | -44.41803 | 169.82678 | 36303 ft | 251 kts | 74° |
| 2026-04-22 03:45 | -44.40946 | 169.84898 | 35914 ft | 279 kts | 73° |
| 2026-04-22 03:46 | -44.39939 | 169.87523 | 35377 ft | 320 kts | 72° |
| 2026-04-22 03:46 | -44.38855 | 169.90235 | 35375 ft | 314 kts | 72° |
| 2026-04-22 03:46 | -44.37818 | 169.92849 | 35365 ft | 301 kts | 73° |
| 2026-04-22 03:46 | -44.36847 | 169.95369 | 35361 ft | 288 kts | 74° |
| 2026-04-22 03:47 | -44.35915 | 169.97789 | 35361 ft | 278 kts | 74° |
| 2026-04-22 03:47 | -44.35004 | 170.00152 | 35356 ft | 281 kts | 74° |
| 2026-04-22 03:47 | -44.34051 | 170.02656 | 35367 ft | 303 kts | 73° |
| 2026-04-22 03:47 | -44.33116 | 170.05374 | 35372 ft | 317 kts | 78° |
| 2026-04-22 03:48 | -44.32069 | 170.08237 | 35377 ft | 347 kts | 68° |
| 2026-04-22 03:48 | -44.30567 | 170.11033 | 35372 ft | 374 kts | 58° |
| 2026-04-22 03:48 | -44.28839 | 170.13832 | 35377 ft | 388 kts | 59° |
| 2026-04-22 03:48 | -44.27028 | 170.16727 | 35374 ft | 404 kts | 57° |
| 2026-04-22 03:49 | -44.25091 | 170.19663 | 35378 ft | 416 kts | 56° |
| 2026-04-22 03:49 | -44.23107 | 170.22668 | 35375 ft | 426 kts | 56° |
| 2026-04-22 03:49 | -44.19088 | 170.28902 | 35375 ft | 443 kts | 56° |
| 2026-04-22 03:50 | -44.14920 | 170.35282 | 35378 ft | 447 kts | 56° |
| 2026-04-22 03:50 | -44.10730 | 170.41717 | 35374 ft | 450 kts | 56° |
| 2026-04-22 03:51 | -44.06504 | 170.48178 | 35375 ft | 452 kts | 55° |
| 2026-04-22 03:51 | -44.02257 | 170.54661 | 35378 ft | 453 kts | 55° |
| 2026-04-22 03:52 | -43.98031 | 170.61092 | 35375 ft | 453 kts | 55° |
| 2026-04-22 03:52 | -43.94493 | 170.66472 | 35372 ft | 454 kts | 55° |
| 2026-04-22 03:53 | -43.90221 | 170.72948 | 35377 ft | 455 kts | 55° |
| 2026-04-22 03:53 | -43.85933 | 170.79437 | 35370 ft | 456 kts | 55° |
| 2026-04-22 03:54 | -43.81636 | 170.85925 | 35369 ft | 458 kts | 55° |
| 2026-04-22 03:54 | -43.77321 | 170.92424 | 35361 ft | 459 kts | 55° |
| 2026-04-22 03:55 | -43.72995 | 170.98929 | 35365 ft | 460 kts | 55° |
| 2026-04-22 03:55 | -43.68663 | 171.05420 | 35369 ft | 459 kts | 55° |
| 2026-04-22 03:56 | -43.64356 | 171.11866 | 35368 ft | 459 kts | 55° |
| 2026-04-22 03:56 | -43.60020 | 171.18338 | 35372 ft | 459 kts | 55° |
| 2026-04-22 03:57 | -43.55668 | 171.24818 | 35366 ft | 459 kts | 54° |
| 2026-04-22 03:57 | -43.51317 | 171.31279 | 35361 ft | 459 kts | 54° |
| 2026-04-22 03:58 | -43.46998 | 171.37685 | 35359 ft | 459 kts | 54° |
| 2026-04-22 03:58 | -43.42636 | 171.44131 | 35364 ft | 461 kts | 54° |
| 2026-04-22 03:59 | -43.38260 | 171.50591 | 35363 ft | 462 kts | 54° |
| 2026-04-22 03:59 | -43.33868 | 171.57057 | 35363 ft | 463 kts | 54° |
| 2026-04-22 04:00 | -43.29467 | 171.63520 | 35354 ft | 463 kts | 54° |
| 2026-04-22 04:00 | -43.25054 | 171.69986 | 35358 ft | 464 kts | 54° |
| 2026-04-22 04:01 | -43.20634 | 171.76446 | 35356 ft | 464 kts | 54° |
| 2026-04-22 04:01 | -43.16213 | 171.82905 | 35354 ft | 465 kts | 53° |
| 2026-04-22 04:02 | -43.11804 | 171.89314 | 35350 ft | 465 kts | 53° |
| 2026-04-22 04:02 | -43.07371 | 171.95758 | 35351 ft | 465 kts | 53° |
| 2026-04-22 04:03 | -43.02926 | 172.02199 | 35349 ft | 466 kts | 53° |
| 2026-04-22 04:03 | -42.98468 | 172.08645 | 35347 ft | 466 kts | 53° |
| 2026-04-22 04:04 | -42.94010 | 172.15071 | 35341 ft | 465 kts | 53° |
| 2026-04-22 04:04 | -42.89570 | 172.21457 | 35339 ft | 466 kts | 52° |
| 2026-04-22 04:05 | -42.85099 | 172.27885 | 35329 ft | 466 kts | 52° |
| 2026-04-22 04:05 | -42.80624 | 172.34292 | 35336 ft | 467 kts | 52° |
| 2026-04-22 04:06 | -42.76145 | 172.40697 | 35336 ft | 467 kts | 52° |
| 2026-04-22 04:06 | -42.71648 | 172.47109 | 35332 ft | 468 kts | 51° |
| 2026-04-22 04:07 | -42.67144 | 172.53522 | 35337 ft | 470 kts | 51° |
| 2026-04-22 04:07 | -42.62652 | 172.59902 | 35334 ft | 470 kts | 50° |
| 2026-04-22 04:08 | -42.58118 | 172.66324 | 35338 ft | 471 kts | 50° |
| 2026-04-22 04:08 | -42.53583 | 172.72737 | 35342 ft | 471 kts | 50° |
| 2026-04-22 04:09 | -42.49032 | 172.79153 | 35341 ft | 473 kts | 49° |
| 2026-04-22 04:09 | -42.44468 | 172.85579 | 35339 ft | 474 kts | 49° |
| 2026-04-22 04:10 | -42.39891 | 172.91999 | 35338 ft | 474 kts | 49° |
| 2026-04-22 04:10 | -42.35303 | 172.98430 | 35338 ft | 475 kts | 48° |
| 2026-04-22 04:11 | -42.30737 | 173.04813 | 35331 ft | 475 kts | 48° |
| 2026-04-22 04:11 | -42.26133 | 173.11235 | 35325 ft | 476 kts | 47° |
| 2026-04-22 04:12 | -42.21518 | 173.17660 | 35317 ft | 477 kts | 47° |
| 2026-04-22 04:12 | -42.19195 | 173.20884 | 35011 ft | 484 kts | 47° |
| 2026-04-22 04:12 | -42.16810 | 173.24198 | 34372 ft | 498 kts | 47° |
| 2026-04-22 04:13 | -42.14359 | 173.27592 | 33655 ft | 509 kts | 47° |
| 2026-04-22 04:13 | -42.11869 | 173.31040 | 32968 ft | 517 kts | 47° |
| 2026-04-22 04:13 | -42.09341 | 173.34531 | 32276 ft | 524 kts | 47° |
| 2026-04-22 04:13 | -42.06780 | 173.38074 | 31573 ft | 530 kts | 47° |
| 2026-04-22 04:14 | -42.04191 | 173.41644 | 30864 ft | 536 kts | 47° |
| 2026-04-22 04:14 | -42.01573 | 173.45250 | 30118 ft | 541 kts | 47° |
| 2026-04-22 04:14 | -41.98973 | 173.48825 | 29390 ft | 544 kts | 47° |
| 2026-04-22 04:14 | -41.96324 | 173.52469 | 28657 ft | 546 kts | 47° |
| 2026-04-22 04:15 | -41.93660 | 173.56121 | 27934 ft | 549 kts | 47° |
| 2026-04-22 04:15 | -41.90981 | 173.59798 | 27205 ft | 551 kts | 47° |
| 2026-04-22 04:15 | -41.88288 | 173.63480 | 26472 ft | 553 kts | 47° |
| 2026-04-22 04:15 | -41.85589 | 173.67170 | 25732 ft | 554 kts | 47° |
| 2026-04-22 04:16 | -41.82889 | 173.70856 | 25000 ft | 554 kts | 47° |
| 2026-04-22 04:16 | -41.77473 | 173.78239 | 23487 ft | 556 kts | 47° |
| 2026-04-22 04:16 | -41.74752 | 173.81943 | 22740 ft | 557 kts | 46° |
| 2026-04-22 04:17 | -41.72032 | 173.85632 | 22008 ft | 557 kts | 46° |
| 2026-04-22 04:17 | -41.69312 | 173.89329 | 21269 ft | 558 kts | 46° |
| 2026-04-22 04:17 | -41.66577 | 173.93029 | 20529 ft | 558 kts | 46° |
| 2026-04-22 04:17 | -41.63851 | 173.96723 | 19797 ft | 558 kts | 45° |
| 2026-04-22 04:18 | -41.61110 | 174.00421 | 19064 ft | 558 kts | 46° |
| 2026-04-22 04:18 | -41.58391 | 174.04098 | 18297 ft | 556 kts | 46° |
| 2026-04-22 04:18 | -41.55708 | 174.07707 | 17564 ft | 551 kts | 46° |
| 2026-04-22 04:18 | -41.53025 | 174.11328 | 16839 ft | 546 kts | 46° |
| 2026-04-22 04:19 | -41.50355 | 174.14908 | 16122 ft | 541 kts | 46° |
| 2026-04-22 04:19 | -41.47717 | 174.18461 | 15408 ft | 537 kts | 47° |
| 2026-04-22 04:19 | -41.45092 | 174.21974 | 14701 ft | 532 kts | 47° |
| 2026-04-22 04:19 | -41.42498 | 174.25454 | 13995 ft | 527 kts | 48° |
| 2026-04-22 04:20 | -41.39923 | 174.28897 | 13274 ft | 523 kts | 47° |
| 2026-04-22 04:20 | -41.37362 | 174.32325 | 12583 ft | 519 kts | 48° |
| 2026-04-22 04:20 | -41.34810 | 174.35726 | 11899 ft | 517 kts | 48° |
| 2026-04-22 04:20 | -41.32273 | 174.39112 | 11218 ft | 515 kts | 49° |
| 2026-04-22 04:21 | -41.29744 | 174.42483 | 10532 ft | 514 kts | 49° |
| 2026-04-22 04:21 | -41.27222 | 174.45832 | 9832 ft | 512 kts | 49° |
| 2026-04-22 04:21 | -41.24740 | 174.49140 | 9155 ft | 510 kts | 49° |
| 2026-04-22 04:21 | -41.22235 | 174.52452 | 8485 ft | 507 kts | 49° |
| 2026-04-22 04:22 | -41.19741 | 174.55773 | 7813 ft | 506 kts | 49° |
| 2026-04-22 04:22 | -41.17252 | 174.59053 | 7151 ft | 504 kts | 49° |
| 2026-04-22 04:22 | -41.14796 | 174.62379 | 6469 ft | 500 kts | 52° |
| 2026-04-22 04:22 | -41.12519 | 174.65847 | 5804 ft | 497 kts | 52° |
| 2026-04-22 04:23 | -41.10187 | 174.69230 | 5147 ft | 496 kts | 51° |
| 2026-04-22 04:23 | -41.07900 | 174.72563 | 4488 ft | 493 kts | 52° |
| 2026-04-22 04:23 | -41.05615 | 174.75949 | 3833 ft | 490 kts | 52° |
| 2026-04-22 04:23 | -41.03656 | 174.79585 | 3173 ft | 479 kts | 66° |
| 2026-04-22 04:24 | -41.02036 | 174.83434 | 2539 ft | 479 kts | 63° |
| 2026-04-22 04:24 | -41.00266 | 174.87151 | 2308 ft | 471 kts | 62° |
| 2026-04-22 04:24 | -40.98628 | 174.90851 | 2300 ft | 462 kts | 65° |
| 2026-04-22 04:24 | -40.96955 | 174.94456 | 2281 ft | 462 kts | 56° |
| 2026-04-22 04:25 | -40.94474 | 174.97192 | 2281 ft | 469 kts | 34° |
| 2026-04-22 04:25 | -40.91689 | 174.99417 | 2281 ft | 466 kts | 34° |
| 2026-04-22 04:25 | -40.88842 | 175.01499 | 2281 ft | 466 kts | 30° |
| 2026-04-22 04:25 | -40.86029 | 175.03514 | 2282 ft | 465 kts | 32° |
| 2026-04-22 04:26 | -40.83248 | 175.05690 | 2284 ft | 464 kts | 33° |
| 2026-04-22 04:26 | -40.80464 | 175.07852 | 2293 ft | 463 kts | 32° |
| 2026-04-22 04:26 | -40.77665 | 175.09971 | 2290 ft | 463 kts | 32° |
| 2026-04-22 04:26 | -40.74850 | 175.12061 | 2289 ft | 463 kts | 32° |
| 2026-04-22 04:27 | -40.72063 | 175.14193 | 2283 ft | 463 kts | 32° |
| 2026-04-22 04:27 | -40.69308 | 175.16281 | 2283 ft | 462 kts | 32° |
| 2026-04-22 04:27 | -40.66516 | 175.18399 | 2284 ft | 462 kts | 32° |
| 2026-04-22 04:27 | -40.63721 | 175.20496 | 2280 ft | 461 kts | 31° |
| 2026-04-22 04:28 | -40.60932 | 175.22602 | 2281 ft | 460 kts | 32° |
| 2026-04-22 04:28 | -40.58156 | 175.24701 | 2275 ft | 460 kts | 31° |
| 2026-04-22 04:28 | -40.55378 | 175.26792 | 2272 ft | 459 kts | 31° |
| 2026-04-22 04:28 | -40.52608 | 175.28878 | 2274 ft | 458 kts | 31° |
| 2026-04-22 04:29 | -40.49872 | 175.30922 | 2271 ft | 458 kts | 31° |
| 2026-04-22 04:29 | -40.47142 | 175.32989 | 2271 ft | 434 kts | 31° |
| 2026-04-22 04:29 | -40.44704 | 175.34800 | 2261 ft | 375 kts | 31° |
| 2026-04-22 04:29 | -40.42552 | 175.36414 | 2247 ft | 339 kts | 32° |
| 2026-04-22 04:30 | -40.40580 | 175.37893 | 2250 ft | 315 kts | 32° |
| 2026-04-22 04:30 | -40.38730 | 175.39288 | 2246 ft | 300 kts | 32° |
| 2026-04-22 04:30 | -40.36918 | 175.40560 | 2246 ft | 293 kts | 24° |
| 2026-04-22 04:30 | -40.34900 | 175.40741 | 2243 ft | 294 kts | 349° |
| 2026-04-22 04:31 | -40.33083 | 175.39818 | 2250 ft | 270 kts | 324° |
| 2026-04-22 04:31 | -40.31811 | 175.38196 | 2246 ft | 250 kts | 303° |
| 2026-04-22 04:31 | -40.31110 | 175.36223 | 2249 ft | 233 kts | 281° |
| 2026-04-22 04:31 | -40.30968 | 175.33904 | 2252 ft | 272 kts | 259° |
| 2026-04-22 04:32 | -40.31512 | 175.31666 | 2248 ft | 244 kts | 238° |
| 2026-04-22 04:32 | -40.32510 | 175.30017 | 2205 ft | 223 kts | 219° |
| 2026-04-22 04:32 | -40.33742 | 175.28874 | 2071 ft | 213 kts | 210° |
| 2026-04-22 04:32 | -40.34947 | 175.27803 | 2048 ft | 204 kts | 211° |
| 2026-04-22 04:33 | -40.36101 | 175.26789 | 2037 ft | 196 kts | 210° |
| 2026-04-22 04:33 | -40.37208 | 175.25803 | 2038 ft | 189 kts | 210° |
| 2026-04-22 04:33 | -40.38286 | 175.24900 | 2041 ft | 182 kts | 204° |
| 2026-04-22 04:33 | -40.39415 | 175.24193 | 2039 ft | 179 kts | 202° |
| 2026-04-22 04:34 | -40.40527 | 175.23471 | 2040 ft | 178 kts | 202° |
| 2026-04-22 04:34 | -40.41631 | 175.22728 | 2043 ft | 181 kts | 204° |
| 2026-04-22 04:34 | -40.42937 | 175.21861 | 2060 ft | 240 kts | 204° |
| 2026-04-22 04:34 | -40.44407 | 175.20847 | 2065 ft | 235 kts | 205° |
| 2026-04-22 04:35 | -40.46061 | 175.19736 | 2068 ft | 310 kts | 204° |
| 2026-04-22 04:35 | -40.48207 | 175.18280 | 2076 ft | 379 kts | 205° |
| 2026-04-22 04:35 | -40.50682 | 175.16591 | 2074 ft | 418 kts | 205° |
| 2026-04-22 04:35 | -40.53324 | 175.14767 | 2075 ft | 437 kts | 206° |
| 2026-04-22 04:36 | -40.56060 | 175.12916 | 2077 ft | 445 kts | 205° |
| 2026-04-22 04:36 | -40.58817 | 175.11030 | 2142 ft | 446 kts | 205° |
| 2026-04-22 04:36 | -40.61503 | 175.09198 | 2861 ft | 438 kts | 205° |
| 2026-04-22 04:36 | -40.64239 | 175.07324 | 2874 ft | 445 kts | 205° |
| 2026-04-22 04:37 | -40.66734 | 175.05605 | 2876 ft | 351 kts | 205° |
| 2026-04-22 04:37 | -40.68656 | 175.04274 | 2865 ft | 288 kts | 204° |
| 2026-04-22 04:37 | -40.70590 | 175.02999 | 2862 ft | 331 kts | 202° |
| 2026-04-22 04:37 | -40.72901 | 175.02198 | 2865 ft | 358 kts | 186° |
| 2026-04-22 04:38 | -40.75353 | 175.01658 | 2859 ft | 332 kts | 189° |
| 2026-04-22 04:38 | -40.77358 | 175.01137 | 2492 ft | 268 kts | 188° |
| 2026-04-22 04:38 | -40.78818 | 175.00793 | 2240 ft | 159 kts | 187° |
| 2026-04-22 04:38 | -40.79942 | 175.00551 | 2022 ft | 169 kts | 186° |
| 2026-04-22 04:39 | -40.81230 | 175.00269 | 1731 ft | 222 kts | 186° |
| 2026-04-22 04:39 | -40.82940 | 174.99884 | 1386 ft | 270 kts | 188° |
| 2026-04-22 04:39 | -40.84857 | 174.99416 | 1064 ft | 287 kts | 188° |
| 2026-04-22 04:39 | -40.86417 | 174.99073 | 941 ft | 185 kts | 185° |
| 2026-04-22 04:40 | -40.87878 | 174.98881 | 784 ft | 180 kts | 182° |
| 2026-04-22 04:40 | -40.88860 | 174.98809 | 481 ft | 126 kts | 180° |
| 2026-04-22 04:40 | -40.89312 | 174.98785 | 319 ft | 112 kts | 178° |
| 2026-04-22 04:40 | -40.90013 | 174.98790 | 97 ft | 88 kts | 178° |
| 2026-04-22 04:41 | -40.90383 | 174.98789 | 38 ft | 70 kts | 178° |
| 2026-04-22 04:41 | -40.90666 | 174.98887 | 38 ft | 11 kts | 24° |
| 2026-04-22 04:41 | -40.90620 | 174.98922 | 38 ft | 13 kts | 51° |
| 2026-04-22 04:41 | -40.90560 | 174.98951 | 41 ft | 0 kts | 358° |
| 2026-04-22 04:42 | -40.90462 | 174.98955 | 39 ft | 17 kts | 1° |
| 2026-04-22 04:42 | -40.90345 | 174.98956 | 41 ft | 20 kts | 4° |
| 2026-04-22 04:42 | -40.90144 | 174.98891 | 38 ft | 37 kts | 308° |
| 2026-04-22 04:42 | -40.89997 | 174.98685 | 38 ft | 16 kts | 315° |
| 2026-04-22 04:43 | -40.89921 | 174.98579 | 39 ft | 16 kts | 310° |
| 2026-04-22 04:43 | -40.89924 | 174.98558 | 39 ft | 0 kts | 215° |
| 2026-04-22 04:45 | -40.89925 | 174.98558 | 39 ft | 4 kts | 211° |
| 2026-04-22 04:45 | -40.89916 | 174.98997 | 41 ft | 7 kts | 96° |
| 2026-04-22 04:45 | -40.90202 | 174.99888 | 443 ft | 289 kts | 114° |
| 2026-04-22 04:46 | -40.89389 | 175.01030 | 651 ft | 373 kts | 267° |
| 2026-04-22 04:46 | -40.90516 | 174.98533 | 757 ft | 286 kts | 199° |
| 2026-04-22 04:46 | -40.92230 | 174.99024 | 1350 ft | 209 kts | 184° |
| 2026-04-22 04:46 | -40.92357 | 174.97160 | 1521 ft | 345 kts | 337° |
| 2026-04-22 04:47 | -40.90103 | 174.97073 | 2191 ft | 293 kts | 1° |
| 2026-04-22 04:47 | -40.88281 | 174.97090 | 2241 ft | 230 kts | 18° |
| 2026-04-22 04:47 | -40.87245 | 174.98184 | 1760 ft | 177 kts | 81° |
| 2026-04-22 04:47 | -40.87671 | 174.99260 | 1080 ft | 139 kts | 178° |
| 2026-04-22 04:48 | -40.88612 | 174.98958 | 576 ft | 133 kts | 187° |
| 2026-04-22 04:48 | -40.89459 | 174.98800 | 316 ft | 113 kts | 181° |
| 2026-04-22 04:48 | -40.90187 | 174.98788 | 63 ft | 100 kts | 177° |
| 2026-04-22 04:48 | -40.90778 | 174.98795 | 38 ft | 68 kts | 185° |
| 2026-04-22 04:49 | -40.91018 | 174.98794 | 1053 ft | 0 kts | 181° |
| 2026-04-22 04:49 | -40.91147 | 174.98788 | 5868 ft | 62 kts | 176° |
| 2026-04-22 04:50 | -40.91366 | 174.98810 | 5059 ft | 150 kts | 162° |
| 2026-04-22 04:50 | -40.90722 | 174.99849 | 1764 ft | 420 kts | 316° |
| 2026-04-22 04:50 | -40.88239 | 174.98185 | 1737 ft | 439 kts | 68° |
| 2026-04-22 04:50 | -40.90206 | 174.98411 | 403 ft | 425 kts | 189° |
| 2026-04-22 04:52 | -40.90579 | 174.98309 | 284 ft | 421 kts | 191° |
| 2026-04-22 04:52 | -40.92966 | 174.98623 | 1666 ft | 318 kts | 98° |
| 2026-04-22 04:52 | -40.90108 | 174.98587 | 927 ft | 451 kts | 354° |
| 2026-04-22 04:53 | -40.87564 | 174.98928 | 1449 ft | 393 kts | 133° |
| 2026-04-22 04:53 | -40.90218 | 174.98808 | 85 ft | 428 kts | 176° |
| 2026-04-22 04:53 | -40.92426 | 174.99015 | 5165 ft | 105 kts | 167° |
| 2026-04-22 04:53 | -40.92545 | 174.99107 | 11151 ft | 138 kts | 153° |
| 2026-04-22 04:54 | -40.92843 | 174.99980 | 5211 ft | 149 kts | 346° |
| 2026-04-22 04:54 | -40.94411 | 174.99036 | 2849 ft | 373 kts | 176° |
| 2026-04-22 04:54 | -40.94217 | 174.99352 | 1649 ft | 386 kts | 195° |
| 2026-04-22 04:54 | -40.92500 | 174.98461 | 3469 ft | 414 kts | 14° |
| 2026-04-22 04:55 | -40.89276 | 174.98892 | 902 ft | 507 kts | 347° |
| 2026-04-22 04:55 | -40.90024 | 174.97928 | 361 ft | 409 kts | 153° |
| 2026-04-22 04:55 | -40.90760 | 174.98232 | 1005 ft | 0 kts | 163° |
| 2026-04-22 04:55 | -40.91453 | 174.98681 | 556 ft | 237 kts | 120° |
| 2026-04-22 04:56 | -40.89700 | 174.99467 | 1241 ft | 302 kts | 1° |
| 2026-04-22 04:56 | -40.88459 | 174.99268 | 3547 ft | 0 kts | 357° |
| 2026-04-22 04:56 | -40.89363 | 174.98923 | 2515 ft | 367 kts | 184° |
| 2026-04-22 04:56 | -40.92142 | 174.99422 | 1287 ft | 437 kts | 135° |
| 2026-04-22 04:57 | -40.90633 | 175.00310 | 485 ft | 487 kts | 331° |
| 2026-04-22 04:57 | -40.87780 | 174.98507 | 334 ft | 476 kts | 290° |
| 2026-04-22 04:57 | -40.89270 | 174.96924 | 198 ft | 445 kts | 125° |
| 2026-04-22 04:57 | -40.90360 | 175.00715 | 526 ft | 435 kts | 122° |
| 2026-04-22 04:58 | -40.92785 | 175.02804 | 1808 ft | 387 kts | 163° |
| 2026-04-22 04:58 | -40.93922 | 175.03331 | 9073 ft | 159 kts | 115° |
| 2026-04-22 04:58 | -40.93953 | 175.05717 | 6873 ft | 365 kts | 71° |
| 2026-04-22 04:58 | -40.91728 | 175.05848 | 4448 ft | 439 kts | 274° |
| 2026-04-22 04:59 | -40.93492 | 175.04119 | 3257 ft | 202 kts | 176° |
| 2026-04-22 04:59 | -40.94781 | 175.04854 | 10291 ft | 101 kts | 133° |
| 2026-04-22 04:59 | -40.93923 | 175.05730 | 12799 ft | 205 kts | 53° |
| 2026-04-22 04:59 | -40.94104 | 175.04426 | 8400 ft | 347 kts | 239° |
| 2026-04-22 05:00 | -40.96458 | 175.02977 | 6594 ft | 390 kts | 168° |
| 2026-04-22 05:00 | -40.95682 | 175.02760 | 12876 ft | 322 kts | 348° |
| 2026-04-22 05:00 | -40.95098 | 175.02337 | 2375 ft | 379 kts | 212° |
| 2026-04-22 05:00 | -40.96931 | 175.03305 | 2166 ft | 414 kts | 93° |
| 2026-04-22 05:01 | -40.99143 | 175.03977 | 4761 ft | 313 kts | 186° |
| 2026-04-22 05:01 | -40.98688 | 175.03661 | 2813 ft | 342 kts | 350° |
| 2026-04-22 05:01 | -40.97462 | 175.04881 | 3379 ft | 237 kts | 119° |
| 2026-04-22 05:01 | -40.98398 | 175.06695 | 2885 ft | 240 kts | 106° |
| 2026-04-22 05:02 | -40.97139 | 175.07722 | 2572 ft | 269 kts | 332° |
| 2026-04-22 05:02 | -40.96038 | 175.05944 | 2260 ft | 245 kts | 293° |
| 2026-04-22 05:02 | -40.95319 | 175.03977 | 1969 ft | 229 kts | 288° |
| 2026-04-22 05:02 | -40.94741 | 175.02086 | 1798 ft | 215 kts | 282° |
| 2026-04-22 05:03 | -40.93996 | 175.00378 | 1377 ft | 225 kts | 306° |
| 2026-04-22 05:03 | -40.92742 | 174.99147 | 1023 ft | 221 kts | 337° |
| 2026-04-22 05:03 | -40.91303 | 174.98765 | 119 ft | 195 kts | 357° |
| 2026-04-22 05:03 | -40.90127 | 174.98815 | 38 ft | 123 kts | 5° |
| 2026-04-22 05:04 | -40.89790 | 174.98745 | 39 ft | 0 kts | 335° |
| 2026-04-22 05:07 | -40.89856 | 174.98556 | 125 ft | 0 kts | 99° |
| 2026-04-22 05:07 | -40.90410 | 174.98423 | 125 ft | 0 kts | 38° |